createdAt,value
2022-12-15T00:00:49.888Z,77.77
2022-12-15T00:03:50.889Z,78.53
2022-12-15T00:06:52.299Z,80.42
2022-12-15T00:09:53.115Z,80.63
2022-12-15T00:12:55.625Z,81.31
2022-12-15T00:15:56.877Z,82.48
2022-12-15T00:18:57.689Z,82.71
2022-12-15T00:21:59.116Z,81.89
2022-12-15T00:24:59.882Z,82.62
2022-12-15T00:28:02.413Z,82.31
2022-12-15T00:31:03.904Z,83.14
2022-12-15T00:34:05.280Z,84.13
2022-12-15T00:37:06.245Z,83.40
2022-12-15T00:39:58.840Z,84.31
2022-12-15T00:42:42.599Z,83.89
2022-12-15T00:45:47.779Z,84.00
2022-12-15T00:48:30.590Z,84.75
2022-12-15T00:51:14.926Z,85.34
2022-12-15T00:54:18.142Z,86.30
2022-12-15T00:57:19.737Z,86.77
2022-12-15T01:00:21.137Z,86.75
2022-12-15T01:03:30.555Z,86.33
2022-12-15T01:06:35.039Z,86.87
2022-12-15T01:09:36.543Z,86.15
2022-12-15T01:12:38.075Z,85.63
2022-12-15T01:15:39.587Z,86.68
2022-12-15T01:18:42.779Z,86.15
2022-12-15T01:21:26.927Z,85.80
2022-12-15T01:24:10.751Z,87.27
2022-12-15T01:26:54.654Z,87.41
2022-12-15T01:29:38.444Z,86.71
2022-12-15T01:32:22.208Z,87.03
2022-12-15T01:35:08.802Z,86.89
2022-12-15T01:37:52.624Z,86.97
2022-12-15T01:40:46.152Z,86.79
2022-12-15T01:43:32.678Z,86.93
2022-12-15T01:46:18.781Z,87.51
2022-12-15T01:49:15.723Z,88.51
2022-12-15T01:52:03.337Z,87.57
2022-12-15T01:54:51.049Z,88.00
2022-12-15T01:57:36.680Z,88.80
2022-12-15T02:00:20.594Z,88.80
2022-12-15T02:03:07.782Z,89.33
2022-12-15T02:05:53.407Z,89.93
2022-12-15T02:08:39.231Z,90.09
2022-12-15T02:11:53.580Z,90.24
2022-12-15T02:14:52.271Z,89.19
2022-12-15T02:17:42.270Z,89.95
2022-12-15T02:20:51.260Z,89.30
2022-12-15T02:24:08.067Z,90.33
2022-12-15T02:27:16.953Z,89.81
2022-12-15T02:30:22.020Z,90.80
2022-12-15T02:33:12.543Z,91.00
2022-12-15T02:36:00.649Z,90.81
2022-12-15T02:38:45.170Z,89.71
2022-12-15T02:41:37.990Z,90.13
2022-12-15T02:44:27.857Z,91.68
2022-12-15T02:47:22.244Z,91.02
2022-12-15T02:50:27.545Z,92.25
2022-12-15T02:53:30.822Z,92.43
2022-12-15T02:56:24.110Z,91.03
2022-12-15T02:59:12.084Z,91.36
2022-12-15T03:02:00.901Z,91.56
2022-12-15T03:04:46.271Z,91.35
2022-12-15T03:07:30.001Z,91.80
2022-12-15T03:10:15.356Z,92.51
2022-12-15T03:13:00.075Z,91.41
2022-12-15T03:15:43.841Z,91.15
2022-12-15T03:18:27.519Z,90.29
2022-12-15T03:21:12.611Z,90.86
2022-12-15T03:23:56.370Z,89.90
2022-12-15T03:26:40.028Z,89.68
2022-12-15T03:29:23.942Z,89.40
2022-12-15T03:32:08.395Z,90.00
2022-12-15T03:34:52.088Z,90.37
2022-12-15T03:37:37.205Z,90.42
2022-12-15T03:40:20.969Z,89.85
2022-12-15T03:43:04.729Z,89.64
2022-12-15T03:45:48.518Z,91.25
2022-12-15T03:48:32.154Z,91.22
2022-12-15T03:51:15.852Z,92.46
2022-12-15T03:54:01.236Z,92.07
2022-12-15T03:56:45.646Z,91.82
2022-12-15T03:59:29.354Z,91.73
2022-12-15T04:02:14.686Z,91.90
2022-12-15T04:04:58.520Z,91.76
2022-12-15T04:07:42.300Z,90.81
2022-12-15T04:10:33.900Z,92.51
2022-12-15T04:13:18.873Z,91.96
2022-12-15T04:16:03.140Z,91.03
2022-12-15T04:18:46.907Z,90.94
2022-12-15T04:21:29.592Z,90.81
2022-12-15T04:24:30.903Z,90.84
2022-12-15T04:27:33.243Z,91.19
2022-12-15T04:30:34.962Z,91.25
2022-12-15T04:33:36.821Z,91.99
2022-12-15T04:36:38.502Z,91.33
2022-12-15T04:39:39.758Z,91.70
2022-12-15T04:42:43.629Z,91.32
2022-12-15T04:45:44.589Z,90.78
2022-12-15T04:48:45.415Z,90.14
2022-12-15T04:51:46.340Z,90.11
2022-12-15T04:54:47.393Z,90.92
2022-12-15T04:57:49.868Z,91.04
2022-12-15T05:00:51.344Z,91.39
2022-12-15T05:03:52.152Z,91.11
2022-12-15T05:06:53.327Z,90.70
2022-12-15T05:09:57.313Z,91.18
2022-12-15T05:13:03.441Z,91.77
2022-12-15T05:16:04.632Z,90.27
2022-12-15T05:19:05.540Z,91.28
2022-12-15T05:22:06.910Z,90.53
2022-12-15T05:25:07.759Z,89.68
2022-12-15T05:28:10.630Z,90.03
2022-12-15T05:31:12.065Z,89.83
2022-12-15T05:34:02.634Z,89.73
2022-12-15T05:36:49.244Z,90.00
2022-12-15T05:39:33.072Z,89.68
2022-12-15T05:42:16.791Z,89.61
2022-12-15T05:45:01.916Z,89.31
2022-12-15T05:47:53.911Z,88.48
2022-12-15T05:50:37.613Z,88.97
2022-12-15T05:53:23.401Z,89.34
2022-12-15T05:56:09.213Z,89.42
2022-12-15T05:58:53.049Z,89.96
2022-12-15T06:01:38.285Z,90.20
2022-12-15T06:04:22.104Z,89.42
2022-12-15T06:07:05.936Z,89.23
2022-12-15T06:09:49.951Z,89.65
2022-12-15T06:12:33.659Z,88.80
2022-12-15T06:15:17.819Z,87.96
2022-12-15T06:18:02.889Z,87.34
2022-12-15T06:20:46.574Z,87.03
2022-12-15T06:23:34.350Z,86.94
2022-12-15T06:26:21.684Z,86.75
2022-12-15T06:29:07.759Z,87.16
2022-12-15T06:31:51.768Z,86.30
2022-12-15T06:34:37.203Z,86.61
2022-12-15T06:37:21.104Z,86.61
2022-12-15T06:40:05.399Z,86.01
2022-12-15T06:42:49.209Z,85.99
2022-12-15T06:45:32.944Z,86.14
2022-12-15T06:48:16.774Z,85.41
2022-12-15T06:51:06.220Z,85.95
2022-12-15T06:53:52.672Z,84.52
2022-12-15T06:56:37.507Z,86.06
2022-12-15T06:59:21.278Z,84.58
2022-12-15T07:02:05.026Z,83.48
2022-12-15T07:04:48.789Z,84.91
2022-12-15T07:07:33.901Z,84.22
2022-12-15T07:10:17.930Z,84.19
2022-12-15T07:13:01.636Z,83.58
2022-12-15T07:15:45.447Z,83.24
2022-12-15T07:18:29.664Z,82.49
2022-12-15T07:21:13.874Z,81.54
2022-12-15T07:23:59.808Z,81.52
2022-12-15T07:26:46.140Z,80.93
2022-12-15T07:29:32.999Z,80.39
2022-12-15T07:32:16.943Z,79.62
2022-12-15T07:35:00.857Z,79.45
2022-12-15T07:37:44.723Z,79.77
2022-12-15T07:40:29.798Z,81.87
2022-12-15T07:43:13.531Z,81.18
2022-12-15T07:45:57.338Z,82.10
2022-12-15T07:48:41.089Z,81.13
2022-12-15T07:51:24.747Z,79.75
2022-12-15T07:54:08.893Z,79.60
2022-12-15T07:56:54.088Z,79.04
2022-12-15T07:59:38.147Z,78.97
2022-12-15T08:02:22.143Z,78.72
2022-12-15T08:05:06.604Z,77.76
2022-12-15T08:07:50.357Z,78.90
2022-12-15T08:10:34.243Z,78.52
2022-12-15T08:13:52.480Z,79.02
2022-12-15T08:16:23.361Z,78.73
2022-12-15T08:19:08.539Z,78.77
2022-12-15T08:21:52.271Z,78.90
2022-12-15T08:24:36.132Z,78.76
2022-12-15T08:27:21.708Z,78.24
2022-12-15T08:30:09.145Z,78.33
2022-12-15T08:32:53.375Z,77.70
2022-12-15T08:35:56.438Z,80.42
2022-12-15T08:38:42.143Z,79.03
2022-12-15T08:41:28.327Z,79.96
2022-12-15T08:44:12.311Z,79.62
2022-12-15T08:46:57.659Z,81.27
2022-12-15T08:49:41.606Z,80.72
2022-12-15T08:52:25.773Z,81.57
2022-12-15T08:55:15.612Z,81.35
2022-12-15T08:58:02.095Z,80.26
2022-12-15T09:00:46.182Z,80.43
2022-12-15T09:03:32.140Z,81.81
2022-12-15T09:06:19.400Z,82.35
2022-12-15T09:09:07.336Z,82.56
2022-12-15T09:11:51.887Z,82.92
2022-12-15T09:14:35.939Z,82.32
2022-12-15T09:17:19.953Z,82.55
2022-12-15T09:20:05.808Z,83.11
2022-12-15T09:22:50.417Z,81.85
2022-12-15T09:25:34.237Z,81.41
2022-12-15T09:28:17.945Z,80.52
2022-12-15T09:31:04.088Z,79.02
2022-12-15T09:33:48.153Z,80.09
2022-12-15T09:36:33.664Z,80.89
2022-12-15T09:39:17.443Z,80.47
2022-12-15T09:42:02.362Z,80.09
2022-12-15T09:44:46.391Z,79.16
2022-12-15T09:47:40.846Z,77.44
2022-12-15T09:50:30.520Z,79.71
2022-12-15T09:53:53.085Z,79.09
2022-12-15T09:56:28.572Z,79.79
2022-12-15T09:59:25.501Z,78.97
2022-12-15T10:02:33.429Z,79.26
2022-12-15T10:05:38.106Z,78.05
2022-12-15T10:08:34.235Z,79.88
2022-12-15T10:11:22.863Z,78.73
2022-12-15T10:14:17.984Z,79.65
2022-12-15T10:17:08.209Z,79.15
2022-12-15T10:19:57.185Z,81.65
2022-12-15T10:22:41.256Z,79.63
2022-12-15T10:25:30.887Z,79.86
2022-12-15T10:28:34.893Z,80.90
2022-12-15T10:31:25.796Z,81.72
2022-12-15T10:34:12.149Z,78.62
2022-12-15T10:36:57.877Z,79.17
2022-12-15T10:39:43.283Z,79.08
2022-12-15T10:42:29.890Z,77.60
2022-12-15T10:45:33.204Z,76.84
2022-12-15T10:48:21.462Z,77.95
2022-12-15T10:51:29.082Z,77.74
2022-12-15T10:54:15.151Z,75.53
2022-12-15T10:57:00.638Z,74.94
2022-12-15T10:59:45.886Z,75.16
2022-12-15T11:02:37.056Z,75.91
2022-12-15T11:05:21.914Z,75.06
2022-12-15T11:08:16.710Z,76.42
2022-12-15T11:11:18.285Z,76.45
2022-12-15T11:14:07.311Z,76.56
2022-12-15T11:16:55.492Z,78.98
2022-12-15T11:19:45.261Z,76.95
2022-12-15T11:22:36.602Z,77.58
2022-12-15T11:25:30.200Z,77.83
2022-12-15T11:28:19.653Z,75.72
2022-12-15T11:31:13.190Z,74.37
2022-12-15T11:33:58.426Z,74.97
2022-12-15T11:37:07.464Z,76.77
2022-12-15T11:40:04.693Z,75.50
2022-12-15T11:43:01.861Z,75.78
2022-12-15T11:45:57.410Z,76.57
2022-12-15T11:48:50.121Z,76.12
2022-12-15T11:51:43.728Z,74.95
2022-12-15T11:54:31.308Z,74.15
2022-12-15T11:57:37.319Z,74.00
2022-12-15T12:00:22.453Z,72.32
2022-12-15T12:03:21.138Z,73.09
2022-12-15T12:06:12.132Z,72.83
2022-12-15T12:09:09.533Z,73.25
2022-12-15T12:11:58.022Z,74.35
2022-12-15T12:14:51.394Z,74.62
2022-12-15T12:17:44.742Z,74.92
2022-12-15T12:20:36.695Z,74.71
2022-12-15T12:23:26.304Z,74.57
2022-12-15T12:26:18.211Z,74.39
2022-12-15T12:29:06.852Z,75.36
2022-12-15T12:32:04.525Z,75.85
2022-12-15T12:35:31.433Z,76.22
2022-12-15T12:38:07.921Z,76.37
2022-12-15T12:41:00.915Z,76.77
2022-12-15T12:43:50.529Z,75.20
2022-12-15T12:46:40.580Z,75.72
2022-12-15T12:49:30.411Z,74.04
2022-12-15T12:52:23.461Z,73.76
2022-12-15T12:55:26.399Z,72.05
2022-12-15T12:58:35.413Z,73.01
2022-12-15T13:01:28.680Z,75.10
2022-12-15T13:04:14.555Z,74.65
2022-12-15T13:07:02.814Z,73.33
2022-12-15T13:10:02.127Z,75.04
2022-12-15T13:12:52.318Z,75.70
2022-12-15T13:15:40.988Z,75.43
2022-12-15T13:18:29.575Z,75.03
2022-12-15T13:21:36.806Z,73.10
2022-12-15T13:24:28.977Z,72.78
2022-12-15T13:27:15.478Z,72.68
2022-12-15T13:30:02.383Z,71.15
2022-12-15T13:32:55.277Z,70.53
2022-12-15T13:35:43.653Z,72.05
2022-12-15T13:38:55.831Z,72.14
2022-12-15T13:41:54.282Z,74.85
2022-12-15T13:44:48.671Z,74.14
2022-12-15T13:47:32.799Z,73.94
2022-12-15T13:50:21.358Z,73.33
2022-12-15T13:53:19.865Z,71.87
2022-12-15T13:56:22.596Z,72.24
2022-12-15T13:59:17.513Z,73.00
2022-12-15T14:02:01.767Z,72.39
2022-12-15T14:04:45.579Z,72.91
2022-12-15T14:07:30.308Z,75.17
2022-12-15T14:10:21.786Z,73.29
2022-12-15T14:13:16.071Z,75.22
2022-12-15T14:16:05.460Z,74.12
2022-12-15T14:19:06.466Z,73.58
2022-12-15T14:21:52.006Z,73.51
2022-12-15T14:24:44.745Z,75.86
2022-12-15T14:27:32.807Z,74.17
2022-12-15T14:30:24.869Z,74.12
2022-12-15T14:33:14.757Z,74.86
2022-12-15T14:36:01.327Z,75.26
2022-12-15T14:38:49.552Z,76.09
2022-12-15T14:41:36.585Z,75.84
2022-12-15T14:44:36.489Z,77.37
2022-12-15T14:47:24.927Z,77.88
2022-12-15T14:50:13.036Z,76.64
2022-12-15T14:53:01.554Z,76.60
2022-12-15T14:55:46.498Z,79.11
2022-12-15T14:58:34.570Z,78.94
2022-12-15T15:01:30.038Z,78.06
2022-12-15T15:04:26.358Z,77.62
2022-12-15T15:07:18.904Z,77.87
2022-12-15T15:10:05.003Z,79.39
2022-12-15T15:12:50.198Z,78.96
2022-12-15T15:15:34.363Z,81.43
2022-12-15T15:18:27.480Z,80.87
2022-12-15T15:21:21.101Z,82.07
2022-12-15T15:24:22.762Z,82.11
2022-12-15T15:27:24.698Z,82.59
2022-12-15T15:30:17.285Z,82.40
2022-12-15T15:33:02.344Z,83.35
2022-12-15T15:35:51.190Z,82.02
2022-12-15T15:38:40.884Z,82.79
2022-12-15T15:41:30.823Z,82.30
2022-12-15T15:44:16.706Z,81.94
2022-12-15T15:47:01.343Z,81.30
2022-12-15T15:49:46.747Z,80.57
2022-12-15T15:52:32.465Z,80.24
2022-12-15T15:55:20.407Z,80.40
2022-12-15T15:58:11.365Z,80.33
2022-12-15T16:00:55.725Z,80.91
2022-12-15T16:03:40.106Z,81.67
2022-12-15T16:06:24.780Z,80.93
2022-12-15T16:09:13.908Z,80.30
2022-12-15T16:11:59.590Z,79.74
2022-12-15T16:14:43.637Z,79.61
2022-12-15T16:17:28.394Z,79.57
2022-12-15T16:20:17.496Z,79.47
2022-12-15T16:23:04.810Z,81.08
2022-12-15T16:25:53.963Z,80.42
2022-12-15T16:28:37.927Z,79.79
2022-12-15T16:31:35.465Z,79.73
2022-12-15T16:34:24.930Z,79.56
2022-12-15T16:37:22.865Z,80.25
2022-12-15T16:40:16.739Z,80.61
2022-12-15T16:43:03.373Z,79.67
2022-12-15T16:45:50.106Z,80.71
2022-12-15T16:48:34.555Z,81.46
2022-12-15T16:51:28.714Z,79.67
2022-12-15T16:54:19.278Z,80.62
2022-12-15T16:57:03.962Z,79.60
2022-12-15T16:59:49.979Z,79.82
2022-12-15T17:02:34.696Z,79.88
2022-12-15T17:05:19.406Z,79.67
2022-12-15T17:08:07.452Z,78.44
2022-12-15T17:10:52.495Z,78.70
2022-12-15T17:13:45.449Z,79.10
2022-12-15T17:16:31.509Z,79.64
2022-12-15T17:19:20.871Z,79.47
2022-12-15T17:22:05.357Z,80.05
2022-12-15T17:24:49.393Z,80.26
2022-12-15T17:27:33.380Z,79.51
2022-12-15T17:30:17.612Z,79.84
2022-12-15T17:33:02.805Z,81.18
2022-12-15T17:35:47.584Z,81.65
2022-12-15T17:38:31.642Z,80.34
2022-12-15T17:41:42.324Z,79.68
2022-12-15T17:44:38.837Z,80.69
2022-12-15T17:47:24.244Z,80.61
2022-12-15T17:50:11.171Z,80.34
2022-12-15T17:52:55.035Z,80.81
2022-12-15T17:55:38.954Z,81.90
2022-12-15T17:58:25.367Z,82.05
2022-12-15T18:01:13.234Z,82.29
2022-12-15T18:03:56.987Z,83.14
2022-12-15T18:06:44.641Z,83.93
2022-12-15T18:09:28.726Z,83.60
2022-12-15T18:12:19.208Z,83.70
2022-12-15T18:15:03.051Z,83.92
2022-12-15T18:17:47.593Z,83.46
2022-12-15T18:20:31.393Z,83.96
2022-12-15T18:23:19.224Z,84.86
2022-12-15T18:26:03.473Z,82.78
2022-12-15T18:28:47.300Z,83.47
2022-12-15T18:31:31.885Z,85.00
2022-12-15T18:34:18.116Z,85.42
2022-12-15T18:37:01.893Z,85.46
2022-12-15T18:39:47.679Z,84.79
2022-12-15T18:42:31.458Z,87.11
2022-12-15T18:45:20.961Z,85.62
2022-12-15T18:48:16.299Z,84.35
2022-12-15T18:51:02.916Z,83.36
2022-12-15T18:53:48.834Z,83.93
2022-12-15T18:56:34.090Z,82.66
2022-12-15T18:59:19.330Z,82.35
2022-12-15T19:02:03.270Z,82.24
2022-12-15T19:04:47.181Z,82.61
2022-12-15T19:07:30.973Z,82.42
2022-12-15T19:10:15.803Z,83.52
2022-12-15T19:13:01.297Z,83.63
2022-12-15T19:15:46.176Z,83.82
2022-12-15T19:18:47.388Z,84.77
2022-12-15T19:21:50.734Z,84.43
2022-12-15T19:24:52.129Z,84.26
2022-12-15T19:27:35.912Z,83.96
2022-12-15T19:30:22.175Z,84.39
2022-12-15T19:33:06.041Z,86.07
2022-12-15T19:35:54.926Z,85.64
2022-12-15T19:38:38.631Z,84.06
2022-12-15T19:41:22.417Z,83.77
2022-12-15T19:44:14.736Z,84.68
2022-12-15T19:46:59.945Z,85.41
2022-12-15T19:49:44.434Z,85.15
2022-12-15T19:52:29.154Z,83.75
2022-12-15T19:55:16.984Z,83.08
2022-12-15T19:58:01.037Z,84.25
2022-12-15T20:00:44.950Z,84.36
2022-12-15T20:03:31.562Z,84.87
2022-12-15T20:06:18.124Z,85.92
2022-12-15T20:09:02.919Z,86.57
2022-12-15T20:11:47.535Z,87.30
2022-12-15T20:14:31.462Z,87.15
2022-12-15T20:17:15.634Z,87.50
2022-12-15T20:20:01.029Z,85.34
2022-12-15T20:22:49.534Z,85.18
2022-12-15T20:25:37.709Z,85.28
2022-12-15T20:28:24.805Z,86.08
2022-12-15T20:31:08.627Z,85.98
2022-12-15T20:33:53.402Z,85.29
2022-12-15T20:36:39.186Z,85.48
2022-12-15T20:39:26.909Z,85.04
2022-12-15T20:42:14.793Z,83.55
2022-12-15T20:44:58.803Z,83.50
2022-12-15T20:47:44.900Z,83.96
2022-12-15T20:50:35.023Z,83.96
2022-12-15T20:53:22.000Z,82.94
2022-12-15T20:56:06.596Z,82.67
2022-12-15T20:58:50.605Z,82.59
2022-12-15T21:01:37.103Z,82.18
2022-12-15T21:04:26.000Z,81.41
2022-12-15T21:07:12.199Z,81.42
2022-12-15T21:09:57.371Z,81.66
2022-12-15T21:12:42.259Z,83.72
2022-12-15T21:15:26.119Z,83.49
2022-12-15T21:18:57.144Z,83.30
2022-12-15T21:21:21.014Z,82.30
2022-12-15T21:24:14.815Z,82.41
2022-12-15T21:27:01.631Z,82.23
2022-12-15T21:29:51.941Z,82.19
2022-12-15T21:32:36.348Z,82.04
2022-12-15T21:35:20.517Z,81.60
2022-12-15T21:38:05.919Z,81.77
2022-12-15T21:40:53.263Z,81.69
2022-12-15T21:43:43.915Z,81.83
2022-12-15T21:46:29.891Z,81.59
2022-12-15T21:49:15.121Z,81.72
2022-12-15T21:52:01.409Z,81.74
2022-12-15T21:54:45.653Z,83.43
2022-12-15T21:57:29.647Z,82.91
2022-12-15T22:00:18.049Z,83.40
2022-12-15T22:03:02.216Z,85.00
2022-12-15T22:05:46.440Z,85.14
2022-12-15T22:08:30.717Z,84.48
2022-12-15T22:11:21.570Z,85.16
2022-12-15T22:14:17.740Z,84.24
2022-12-15T22:17:15.522Z,85.12
2022-12-15T22:19:59.967Z,86.24
2022-12-15T22:22:44.200Z,86.24
2022-12-15T22:25:28.490Z,85.51
2022-12-15T22:28:23.469Z,85.09
2022-12-15T22:31:08.284Z,85.17
2022-12-15T22:33:54.595Z,86.13
2022-12-15T22:36:39.107Z,86.38
2022-12-15T22:39:23.104Z,86.55
2022-12-15T22:42:07.598Z,86.19
2022-12-15T22:44:52.805Z,86.94
2022-12-15T22:47:39.114Z,86.24
2022-12-15T22:50:27.530Z,84.93
2022-12-15T22:53:14.882Z,85.28
2022-12-15T22:56:00.804Z,85.01
2022-12-15T22:58:48.705Z,86.03
2022-12-15T23:01:33.074Z,85.71
2022-12-15T23:04:17.408Z,84.77
2022-12-15T23:07:04.913Z,85.04
2022-12-15T23:09:48.910Z,86.53
2022-12-15T23:12:31.854Z,85.81
2022-12-15T23:15:33.500Z,86.46
2022-12-15T23:18:17.946Z,85.94
2022-12-15T23:21:01.901Z,85.62
2022-12-15T23:23:47.471Z,85.66
2022-12-15T23:26:31.602Z,84.61
2022-12-15T23:29:15.634Z,84.84
2022-12-15T23:31:59.564Z,85.81
2022-12-15T23:34:43.850Z,85.31
2022-12-15T23:37:27.803Z,85.19
2022-12-15T23:40:20.037Z,85.38
2022-12-15T23:43:04.257Z,84.51
2022-12-15T23:45:55.978Z,84.85
2022-12-15T23:48:41.807Z,84.96
2022-12-15T23:51:26.006Z,84.38
2022-12-15T23:54:10.269Z,83.87
2022-12-15T23:56:55.464Z,83.49
2022-12-15T23:59:39.202Z,85.38
